sensor_id;sensor_type;location;lat;lon;timestamp;pressure;altitude;pressure_sealevel;temperature
29423;BMP180;16399;51.686;8.684;2023-12-28T00:00:45;99332.00;;;10.10
29423;BMP180;16399;51.686;8.684;2023-12-28T00:03:47;99325.00;;;10.00
29423;BMP180;16399;51.686;8.684;2023-12-28T00:06:49;99322.00;;;9.80
29423;BMP180;16399;51.686;8.684;2023-12-28T00:09:52;99331.00;;;9.70
29423;BMP180;16399;51.686;8.684;2023-12-28T00:12:54;99332.00;;;9.70
29423;BMP180;16399;51.686;8.684;2023-12-28T00:15:56;99331.00;;;9.70
29423;BMP180;16399;51.686;8.684;2023-12-28T00:18:59;99328.00;;;9.70
29423;BMP180;16399;51.686;8.684;2023-12-28T00:22:02;99322.00;;;9.70
29423;BMP180;16399;51.686;8.684;2023-12-28T00:25:05;99332.00;;;9.60
29423;BMP180;16399;51.686;8.684;2023-12-28T00:28:08;99342.00;;;9.60
29423;BMP180;16399;51.686;8.684;2023-12-28T00:31:10;99347.00;;;9.50
29423;BMP180;16399;51.686;8.684;2023-12-28T00:34:12;99353.00;;;9.50
29423;BMP180;16399;51.686;8.684;2023-12-28T00:37:14;99353.00;;;9.40
29423;BMP180;16399;51.686;8.684;2023-12-28T00:40:17;99369.00;;;9.40
29423;BMP180;16399;51.686;8.684;2023-12-28T00:43:19;99367.00;;;9.30
29423;BMP180;16399;51.686;8.684;2023-12-28T00:46:21;99358.00;;;9.30
29423;BMP180;16399;51.686;8.684;2023-12-28T00:49:23;99359.00;;;9.20
29423;BMP180;16399;51.686;8.684;2023-12-28T00:52:26;99364.00;;;9.10
29423;BMP180;16399;51.686;8.684;2023-12-28T00:55:28;99371.00;;;9.10
29423;BMP180;16399;51.686;8.684;2023-12-28T00:58:30;99368.00;;;9.00
29423;BMP180;16399;51.686;8.684;2023-12-28T01:01:33;99375.00;;;9.00
29423;BMP180;16399;51.686;8.684;2023-12-28T01:04:35;99377.00;;;8.90
29423;BMP180;16399;51.686;8.684;2023-12-28T01:07:37;99388.00;;;8.90
29423;BMP180;16399;51.686;8.684;2023-12-28T01:10:40;99390.00;;;8.80
29423;BMP180;16399;51.686;8.684;2023-12-28T01:13:42;99387.00;;;8.80
29423;BMP180;16399;51.686;8.684;2023-12-28T01:16:44;99390.00;;;8.70
29423;BMP180;16399;51.686;8.684;2023-12-28T01:19:46;99390.00;;;8.70
29423;BMP180;16399;51.686;8.684;2023-12-28T01:22:49;99392.00;;;8.80
29423;BMP180;16399;51.686;8.684;2023-12-28T01:25:55;99392.00;;;8.80
29423;BMP180;16399;51.686;8.684;2023-12-28T01:28:57;99409.00;;;8.80
29423;BMP180;16399;51.686;8.684;2023-12-28T01:32:03;99420.00;;;8.90
29423;BMP180;16399;51.686;8.684;2023-12-28T01:35:06;99411.00;;;8.90
29423;BMP180;16399;51.686;8.684;2023-12-28T01:38:09;99420.00;;;9.00
29423;BMP180;16399;51.686;8.684;2023-12-28T01:41:11;99421.00;;;9.00
29423;BMP180;16399;51.686;8.684;2023-12-28T01:44:14;99428.00;;;9.00
29423;BMP180;16399;51.686;8.684;2023-12-28T01:47:17;99411.00;;;9.10
29423;BMP180;16399;51.686;8.684;2023-12-28T01:50:20;99425.00;;;9.10
29423;BMP180;16399;51.686;8.684;2023-12-28T01:53:23;99436.00;;;9.10
29423;BMP180;16399;51.686;8.684;2023-12-28T01:56:25;99434.00;;;9.10
29423;BMP180;16399;51.686;8.684;2023-12-28T01:59:28;99427.00;;;9.20
29423;BMP180;16399;51.686;8.684;2023-12-28T02:02:34;99430.00;;;9.10
29423;BMP180;16399;51.686;8.684;2023-12-28T02:05:37;99455.00;;;9.20
29423;BMP180;16399;51.686;8.684;2023-12-28T02:08:39;99422.00;;;9.20
29423;BMP180;16399;51.686;8.684;2023-12-28T02:11:42;99443.00;;;9.20
29423;BMP180;16399;51.686;8.684;2023-12-28T02:14:44;99435.00;;;9.20
29423;BMP180;16399;51.686;8.684;2023-12-28T02:20:53;99434.00;;;9.30
29423;BMP180;16399;51.686;8.684;2023-12-28T02:23:56;99428.00;;;9.20
29423;BMP180;16399;51.686;8.684;2023-12-28T02:26:58;99427.00;;;9.20
29423;BMP180;16399;51.686;8.684;2023-12-28T02:30:00;99446.00;;;9.20
29423;BMP180;16399;51.686;8.684;2023-12-28T02:33:24;99444.00;;;9.20
29423;BMP180;16399;51.686;8.684;2023-12-28T02:36:27;99427.00;;;9.20
29423;BMP180;16399;51.686;8.684;2023-12-28T02:39:30;99435.00;;;9.20
29423;BMP180;16399;51.686;8.684;2023-12-28T02:42:32;99431.00;;;9.20
29423;BMP180;16399;51.686;8.684;2023-12-28T02:45:35;99431.00;;;9.20
29423;BMP180;16399;51.686;8.684;2023-12-28T02:48:38;99430.00;;;9.10
29423;BMP180;16399;51.686;8.684;2023-12-28T02:51:40;99432.00;;;9.10
29423;BMP180;16399;51.686;8.684;2023-12-28T02:54:43;99434.00;;;9.10
29423;BMP180;16399;51.686;8.684;2023-12-28T02:57:46;99437.00;;;9.10
29423;BMP180;16399;51.686;8.684;2023-12-28T03:00:48;99441.00;;;9.10
29423;BMP180;16399;51.686;8.684;2023-12-28T03:03:50;99457.00;;;9.20
29423;BMP180;16399;51.686;8.684;2023-12-28T03:06:53;99452.00;;;9.20
29423;BMP180;16399;51.686;8.684;2023-12-28T03:09:55;99449.00;;;9.20
29423;BMP180;16399;51.686;8.684;2023-12-28T03:12:57;99459.00;;;9.20
29423;BMP180;16399;51.686;8.684;2023-12-28T03:15:59;99461.00;;;9.20
29423;BMP180;16399;51.686;8.684;2023-12-28T03:19:02;99458.00;;;9.20
29423;BMP180;16399;51.686;8.684;2023-12-28T03:22:04;99460.00;;;9.20
29423;BMP180;16399;51.686;8.684;2023-12-28T03:25:07;99471.00;;;9.20
29423;BMP180;16399;51.686;8.684;2023-12-28T03:28:09;99465.00;;;9.20
29423;BMP180;16399;51.686;8.684;2023-12-28T03:31:11;99452.00;;;9.20
29423;BMP180;16399;51.686;8.684;2023-12-28T03:34:14;99468.00;;;9.20
29423;BMP180;16399;51.686;8.684;2023-12-28T03:37:16;99456.00;;;9.20
29423;BMP180;16399;51.686;8.684;2023-12-28T03:40:18;99456.00;;;9.20
29423;BMP180;16399;51.686;8.684;2023-12-28T03:43:21;99451.00;;;9.20
29423;BMP180;16399;51.686;8.684;2023-12-28T03:46:23;99457.00;;;9.20
29423;BMP180;16399;51.686;8.684;2023-12-28T03:49:26;99442.00;;;9.20
29423;BMP180;16399;51.686;8.684;2023-12-28T03:52:29;99444.00;;;9.20
29423;BMP180;16399;51.686;8.684;2023-12-28T03:55:31;99433.00;;;9.10
29423;BMP180;16399;51.686;8.684;2023-12-28T03:58:33;99449.00;;;9.10
29423;BMP180;16399;51.686;8.684;2023-12-28T04:01:36;99439.00;;;9.10
29423;BMP180;16399;51.686;8.684;2023-12-28T04:04:38;99439.00;;;9.00
29423;BMP180;16399;51.686;8.684;2023-12-28T04:07:40;99449.00;;;9.00
29423;BMP180;16399;51.686;8.684;2023-12-28T04:10:44;99450.00;;;8.90
29423;BMP180;16399;51.686;8.684;2023-12-28T04:13:46;99450.00;;;8.80
29423;BMP180;16399;51.686;8.684;2023-12-28T04:16:48;99452.00;;;8.80
29423;BMP180;16399;51.686;8.684;2023-12-28T04:19:51;99447.00;;;8.70
29423;BMP180;16399;51.686;8.684;2023-12-28T04:22:53;99463.00;;;8.70
29423;BMP180;16399;51.686;8.684;2023-12-28T04:25:55;99461.00;;;8.70
29423;BMP180;16399;51.686;8.684;2023-12-28T04:28:58;99456.00;;;8.60
29423;BMP180;16399;51.686;8.684;2023-12-28T04:32:00;99452.00;;;8.60
29423;BMP180;16399;51.686;8.684;2023-12-28T04:35:02;99447.00;;;8.60
29423;BMP180;16399;51.686;8.684;2023-12-28T04:38:05;99458.00;;;8.60
29423;BMP180;16399;51.686;8.684;2023-12-28T04:41:09;99447.00;;;8.60
29423;BMP180;16399;51.686;8.684;2023-12-28T04:44:11;99446.00;;;8.70
29423;BMP180;16399;51.686;8.684;2023-12-28T04:47:13;99450.00;;;8.70
29423;BMP180;16399;51.686;8.684;2023-12-28T04:50:15;99448.00;;;8.60
29423;BMP180;16399;51.686;8.684;2023-12-28T04:53:18;99436.00;;;8.60
29423;BMP180;16399;51.686;8.684;2023-12-28T04:56:20;99422.00;;;8.60
29423;BMP180;16399;51.686;8.684;2023-12-28T04:59:22;99420.00;;;8.60
29423;BMP180;16399;51.686;8.684;2023-12-28T05:02:24;99429.00;;;8.60
29423;BMP180;16399;51.686;8.684;2023-12-28T05:05:27;99420.00;;;8.60
29423;BMP180;16399;51.686;8.684;2023-12-28T05:08:29;99427.00;;;8.60
29423;BMP180;16399;51.686;8.684;2023-12-28T05:11:31;99444.00;;;8.60
29423;BMP180;16399;51.686;8.684;2023-12-28T05:14:34;99436.00;;;8.70
29423;BMP180;16399;51.686;8.684;2023-12-28T05:17:36;99462.00;;;8.70
29423;BMP180;16399;51.686;8.684;2023-12-28T05:20:38;99446.00;;;8.70
29423;BMP180;16399;51.686;8.684;2023-12-28T05:23:40;99450.00;;;8.70
29423;BMP180;16399;51.686;8.684;2023-12-28T05:26:43;99463.00;;;8.70
29423;BMP180;16399;51.686;8.684;2023-12-28T05:29:46;99458.00;;;8.70
29423;BMP180;16399;51.686;8.684;2023-12-28T05:32:48;99472.00;;;8.70
29423;BMP180;16399;51.686;8.684;2023-12-28T05:35:50;99475.00;;;8.70
29423;BMP180;16399;51.686;8.684;2023-12-28T05:38:53;99481.00;;;8.70
29423;BMP180;16399;51.686;8.684;2023-12-28T05:41:55;99484.00;;;8.70
29423;BMP180;16399;51.686;8.684;2023-12-28T05:44:57;99488.00;;;8.70
29423;BMP180;16399;51.686;8.684;2023-12-28T05:47:59;99483.00;;;8.70
29423;BMP180;16399;51.686;8.684;2023-12-28T05:51:02;99490.00;;;8.70
29423;BMP180;16399;51.686;8.684;2023-12-28T05:54:04;99495.00;;;8.80
29423;BMP180;16399;51.686;8.684;2023-12-28T05:57:06;99496.00;;;8.90
29423;BMP180;16399;51.686;8.684;2023-12-28T06:00:09;99500.00;;;9.00
29423;BMP180;16399;51.686;8.684;2023-12-28T06:03:12;99507.00;;;9.00
29423;BMP180;16399;51.686;8.684;2023-12-28T06:06:14;99504.00;;;9.10
29423;BMP180;16399;51.686;8.684;2023-12-28T06:09:17;99487.00;;;9.10
29423;BMP180;16399;51.686;8.684;2023-12-28T06:12:19;99483.00;;;9.20
29423;BMP180;16399;51.686;8.684;2023-12-28T06:15:21;99489.00;;;9.20
29423;BMP180;16399;51.686;8.684;2023-12-28T06:18:24;99482.00;;;9.20
29423;BMP180;16399;51.686;8.684;2023-12-28T06:21:26;99489.00;;;9.20
29423;BMP180;16399;51.686;8.684;2023-12-28T06:24:29;99489.00;;;9.20
29423;BMP180;16399;51.686;8.684;2023-12-28T06:27:31;99491.00;;;9.20
29423;BMP180;16399;51.686;8.684;2023-12-28T06:30:34;99491.00;;;9.20
29423;BMP180;16399;51.686;8.684;2023-12-28T06:33:36;99499.00;;;9.20
29423;BMP180;16399;51.686;8.684;2023-12-28T06:36:40;99493.00;;;9.10
29423;BMP180;16399;51.686;8.684;2023-12-28T06:39:42;99503.00;;;9.10
29423;BMP180;16399;51.686;8.684;2023-12-28T06:42:44;99504.00;;;9.10
29423;BMP180;16399;51.686;8.684;2023-12-28T06:45:46;99504.00;;;9.10
29423;BMP180;16399;51.686;8.684;2023-12-28T06:48:49;99511.00;;;9.10
29423;BMP180;16399;51.686;8.684;2023-12-28T06:51:51;99510.00;;;9.10
29423;BMP180;16399;51.686;8.684;2023-12-28T06:54:54;99512.00;;;9.10
29423;BMP180;16399;51.686;8.684;2023-12-28T06:57:56;99507.00;;;9.10
29423;BMP180;16399;51.686;8.684;2023-12-28T07:00:58;99528.00;;;9.10
29423;BMP180;16399;51.686;8.684;2023-12-28T07:04:01;99529.00;;;9.20
29423;BMP180;16399;51.686;8.684;2023-12-28T07:07:03;99512.00;;;9.20
29423;BMP180;16399;51.686;8.684;2023-12-28T07:10:06;99528.00;;;9.30
29423;BMP180;16399;51.686;8.684;2023-12-28T07:13:08;99529.00;;;9.30
29423;BMP180;16399;51.686;8.684;2023-12-28T07:16:11;99526.00;;;9.30
29423;BMP180;16399;51.686;8.684;2023-12-28T07:19:13;99524.00;;;9.30
29423;BMP180;16399;51.686;8.684;2023-12-28T07:22:15;99530.00;;;9.30
29423;BMP180;16399;51.686;8.684;2023-12-28T07:25:18;99533.00;;;9.30
29423;BMP180;16399;51.686;8.684;2023-12-28T07:28:20;99521.00;;;9.40
29423;BMP180;16399;51.686;8.684;2023-12-28T07:31:24;99525.00;;;9.40
29423;BMP180;16399;51.686;8.684;2023-12-28T07:34:26;99523.00;;;9.40
29423;BMP180;16399;51.686;8.684;2023-12-28T07:37:29;99517.00;;;9.40
29423;BMP180;16399;51.686;8.684;2023-12-28T07:40:31;99523.00;;;9.40
29423;BMP180;16399;51.686;8.684;2023-12-28T07:43:33;99523.00;;;9.30
29423;BMP180;16399;51.686;8.684;2023-12-28T07:46:37;99528.00;;;9.30
29423;BMP180;16399;51.686;8.684;2023-12-28T07:49:39;99546.00;;;9.30
29423;BMP180;16399;51.686;8.684;2023-12-28T07:52:42;99553.00;;;9.30
29423;BMP180;16399;51.686;8.684;2023-12-28T07:55:44;99542.00;;;9.30
29423;BMP180;16399;51.686;8.684;2023-12-28T07:58:47;99545.00;;;9.20
29423;BMP180;16399;51.686;8.684;2023-12-28T08:01:49;99552.00;;;9.20
29423;BMP180;16399;51.686;8.684;2023-12-28T08:04:51;99556.00;;;9.10
29423;BMP180;16399;51.686;8.684;2023-12-28T08:07:54;99565.00;;;9.10
29423;BMP180;16399;51.686;8.684;2023-12-28T08:10:56;99555.00;;;9.10
29423;BMP180;16399;51.686;8.684;2023-12-28T08:13:58;99567.00;;;9.00
29423;BMP180;16399;51.686;8.684;2023-12-28T08:17:00;99562.00;;;9.10
29423;BMP180;16399;51.686;8.684;2023-12-28T08:20:03;99565.00;;;9.10
29423;BMP180;16399;51.686;8.684;2023-12-28T08:23:05;99568.00;;;9.20
29423;BMP180;16399;51.686;8.684;2023-12-28T08:26:07;99574.00;;;9.30
29423;BMP180;16399;51.686;8.684;2023-12-28T08:29:11;99582.00;;;9.30
29423;BMP180;16399;51.686;8.684;2023-12-28T08:32:13;99569.00;;;9.40
29423;BMP180;16399;51.686;8.684;2023-12-28T08:35:15;99562.00;;;9.40
29423;BMP180;16399;51.686;8.684;2023-12-28T08:38:18;99576.00;;;9.50
29423;BMP180;16399;51.686;8.684;2023-12-28T08:41:20;99585.00;;;9.60
29423;BMP180;16399;51.686;8.684;2023-12-28T08:44:25;99582.00;;;9.60
29423;BMP180;16399;51.686;8.684;2023-12-28T08:47:27;99578.00;;;9.70
29423;BMP180;16399;51.686;8.684;2023-12-28T08:50:29;99573.00;;;9.70
29423;BMP180;16399;51.686;8.684;2023-12-28T08:53:31;99578.00;;;9.70
29423;BMP180;16399;51.686;8.684;2023-12-28T08:56:34;99575.00;;;9.70
29423;BMP180;16399;51.686;8.684;2023-12-28T08:59:37;99584.00;;;9.80
29423;BMP180;16399;51.686;8.684;2023-12-28T09:02:39;99590.00;;;9.80
29423;BMP180;16399;51.686;8.684;2023-12-28T09:05:41;99590.00;;;9.90
29423;BMP180;16399;51.686;8.684;2023-12-28T09:08:44;99598.00;;;9.90
29423;BMP180;16399;51.686;8.684;2023-12-28T09:11:47;99597.00;;;10.00
29423;BMP180;16399;51.686;8.684;2023-12-28T09:14:50;99590.00;;;10.10
29423;BMP180;16399;51.686;8.684;2023-12-28T09:17:55;99585.00;;;10.10
29423;BMP180;16399;51.686;8.684;2023-12-28T09:20:57;99586.00;;;10.20
29423;BMP180;16399;51.686;8.684;2023-12-28T09:23:59;99606.00;;;10.30
29423;BMP180;16399;51.686;8.684;2023-12-28T09:27:01;99607.00;;;10.30
29423;BMP180;16399;51.686;8.684;2023-12-28T09:30:04;99599.00;;;10.40
29423;BMP180;16399;51.686;8.684;2023-12-28T09:33:07;99603.00;;;10.40
29423;BMP180;16399;51.686;8.684;2023-12-28T09:36:10;99607.00;;;10.50
29423;BMP180;16399;51.686;8.684;2023-12-28T09:39:14;99592.00;;;10.50
29423;BMP180;16399;51.686;8.684;2023-12-28T09:42:23;99600.00;;;10.50
29423;BMP180;16399;51.686;8.684;2023-12-28T09:45:23;99596.00;;;10.50
29423;BMP180;16399;51.686;8.684;2023-12-28T09:48:25;99596.00;;;10.40
29423;BMP180;16399;51.686;8.684;2023-12-28T09:51:28;99598.00;;;10.40
29423;BMP180;16399;51.686;8.684;2023-12-28T09:54:30;99598.00;;;10.50
29423;BMP180;16399;51.686;8.684;2023-12-28T09:57:32;99608.00;;;10.50
29423;BMP180;16399;51.686;8.684;2023-12-28T10:00:35;99600.00;;;10.50
29423;BMP180;16399;51.686;8.684;2023-12-28T10:03:37;99587.00;;;10.50
29423;BMP180;16399;51.686;8.684;2023-12-28T10:06:40;99585.00;;;10.60
29423;BMP180;16399;51.686;8.684;2023-12-28T10:09:42;99573.00;;;10.70
29423;BMP180;16399;51.686;8.684;2023-12-28T10:12:46;99589.00;;;10.70
29423;BMP180;16399;51.686;8.684;2023-12-28T10:15:48;99578.00;;;10.70
29423;BMP180;16399;51.686;8.684;2023-12-28T10:18:51;99578.00;;;10.80
29423;BMP180;16399;51.686;8.684;2023-12-28T10:21:53;99571.00;;;10.90
29423;BMP180;16399;51.686;8.684;2023-12-28T10:24:56;99572.00;;;10.90
29423;BMP180;16399;51.686;8.684;2023-12-28T10:28:03;99568.00;;;11.00
29423;BMP180;16399;51.686;8.684;2023-12-28T10:31:02;99572.00;;;11.10
29423;BMP180;16399;51.686;8.684;2023-12-28T10:34:04;99574.00;;;11.20
29423;BMP180;16399;51.686;8.684;2023-12-28T10:37:06;99573.00;;;11.20
29423;BMP180;16399;51.686;8.684;2023-12-28T10:40:15;99574.00;;;11.20
29423;BMP180;16399;51.686;8.684;2023-12-28T10:43:17;99571.00;;;11.20
29423;BMP180;16399;51.686;8.684;2023-12-28T10:46:27;99572.00;;;11.20
29423;BMP180;16399;51.686;8.684;2023-12-28T10:49:30;99556.00;;;11.20
29423;BMP180;16399;51.686;8.684;2023-12-28T10:52:34;99579.00;;;11.30
29423;BMP180;16399;51.686;8.684;2023-12-28T10:55:50;99581.00;;;11.30
29423;BMP180;16399;51.686;8.684;2023-12-28T10:59:16;99567.00;;;11.40
29423;BMP180;16399;51.686;8.684;2023-12-28T11:02:18;99556.00;;;11.50
29423;BMP180;16399;51.686;8.684;2023-12-28T11:05:23;99556.00;;;11.50
29423;BMP180;16399;51.686;8.684;2023-12-28T11:08:25;99540.00;;;11.50
29423;BMP180;16399;51.686;8.684;2023-12-28T11:11:27;99547.00;;;11.60
29423;BMP180;16399;51.686;8.684;2023-12-28T11:14:31;99560.00;;;11.70
29423;BMP180;16399;51.686;8.684;2023-12-28T11:17:35;99560.00;;;11.80
29423;BMP180;16399;51.686;8.684;2023-12-28T11:20:39;99560.00;;;11.90
29423;BMP180;16399;51.686;8.684;2023-12-28T11:23:43;99557.00;;;12.00
29423;BMP180;16399;51.686;8.684;2023-12-28T11:26:51;99543.00;;;12.00
29423;BMP180;16399;51.686;8.684;2023-12-28T11:29:49;99542.00;;;11.90
29423;BMP180;16399;51.686;8.684;2023-12-28T11:32:57;99552.00;;;11.90
29423;BMP180;16399;51.686;8.684;2023-12-28T11:35:59;99539.00;;;11.90
29423;BMP180;16399;51.686;8.684;2023-12-28T11:39:03;99551.00;;;11.70
29423;BMP180;16399;51.686;8.684;2023-12-28T11:42:08;99548.00;;;11.70
29423;BMP180;16399;51.686;8.684;2023-12-28T11:45:11;99538.00;;;11.70
29423;BMP180;16399;51.686;8.684;2023-12-28T11:48:21;99547.00;;;11.70
29423;BMP180;16399;51.686;8.684;2023-12-28T11:51:19;99539.00;;;11.80
29423;BMP180;16399;51.686;8.684;2023-12-28T11:54:21;99541.00;;;11.80
29423;BMP180;16399;51.686;8.684;2023-12-28T11:57:24;99546.00;;;11.80
29423;BMP180;16399;51.686;8.684;2023-12-28T12:00:26;99546.00;;;11.80
29423;BMP180;16399;51.686;8.684;2023-12-28T12:03:29;99532.00;;;11.90
29423;BMP180;16399;51.686;8.684;2023-12-28T12:06:31;99539.00;;;11.90
29423;BMP180;16399;51.686;8.684;2023-12-28T12:09:33;99529.00;;;11.90
29423;BMP180;16399;51.686;8.684;2023-12-28T12:12:38;99529.00;;;11.90
29423;BMP180;16399;51.686;8.684;2023-12-28T12:15:41;99526.00;;;11.80
29423;BMP180;16399;51.686;8.684;2023-12-28T12:18:43;99517.00;;;11.80
29423;BMP180;16399;51.686;8.684;2023-12-28T12:21:47;99514.00;;;11.90
29423;BMP180;16399;51.686;8.684;2023-12-28T12:24:51;99514.00;;;11.80
29423;BMP180;16399;51.686;8.684;2023-12-28T12:27:53;99511.00;;;11.80
29423;BMP180;16399;51.686;8.684;2023-12-28T12:30:56;99512.00;;;11.80
29423;BMP180;16399;51.686;8.684;2023-12-28T12:33:59;99508.00;;;11.80
29423;BMP180;16399;51.686;8.684;2023-12-28T12:37:01;99512.00;;;11.80
29423;BMP180;16399;51.686;8.684;2023-12-28T12:40:07;99509.00;;;11.80
29423;BMP180;16399;51.686;8.684;2023-12-28T12:43:10;99498.00;;;11.80
29423;BMP180;16399;51.686;8.684;2023-12-28T12:46:12;99502.00;;;11.80
29423;BMP180;16399;51.686;8.684;2023-12-28T12:49:16;99500.00;;;11.90
29423;BMP180;16399;51.686;8.684;2023-12-28T12:52:19;99497.00;;;11.80
29423;BMP180;16399;51.686;8.684;2023-12-28T12:55:23;99492.00;;;11.80
29423;BMP180;16399;51.686;8.684;2023-12-28T12:58:26;99485.00;;;11.80
29423;BMP180;16399;51.686;8.684;2023-12-28T13:01:29;99475.00;;;11.70
29423;BMP180;16399;51.686;8.684;2023-12-28T13:04:31;99468.00;;;11.70
29423;BMP180;16399;51.686;8.684;2023-12-28T13:07:33;99471.00;;;11.70
29423;BMP180;16399;51.686;8.684;2023-12-28T13:10:36;99468.00;;;11.70
29423;BMP180;16399;51.686;8.684;2023-12-28T13:13:38;99453.00;;;11.70
29423;BMP180;16399;51.686;8.684;2023-12-28T13:16:41;99447.00;;;11.70
29423;BMP180;16399;51.686;8.684;2023-12-28T13:19:43;99465.00;;;11.70
29423;BMP180;16399;51.686;8.684;2023-12-28T13:22:45;99468.00;;;11.70
29423;BMP180;16399;51.686;8.684;2023-12-28T13:25:48;99458.00;;;11.70
29423;BMP180;16399;51.686;8.684;2023-12-28T13:28:50;99465.00;;;11.70
29423;BMP180;16399;51.686;8.684;2023-12-28T13:31:53;99465.00;;;11.80
29423;BMP180;16399;51.686;8.684;2023-12-28T13:34:55;99464.00;;;11.70
29423;BMP180;16399;51.686;8.684;2023-12-28T13:37:57;99476.00;;;11.80
29423;BMP180;16399;51.686;8.684;2023-12-28T13:40:59;99472.00;;;11.80
29423;BMP180;16399;51.686;8.684;2023-12-28T13:44:02;99469.00;;;11.80
29423;BMP180;16399;51.686;8.684;2023-12-28T13:47:05;99467.00;;;11.80
29423;BMP180;16399;51.686;8.684;2023-12-28T13:50:08;99465.00;;;11.80
29423;BMP180;16399;51.686;8.684;2023-12-28T13:53:11;99460.00;;;11.80
29423;BMP180;16399;51.686;8.684;2023-12-28T13:56:13;99461.00;;;11.80
29423;BMP180;16399;51.686;8.684;2023-12-28T13:59:15;99461.00;;;11.80
29423;BMP180;16399;51.686;8.684;2023-12-28T14:02:17;99456.00;;;11.70
29423;BMP180;16399;51.686;8.684;2023-12-28T14:05:20;99459.00;;;11.70
29423;BMP180;16399;51.686;8.684;2023-12-28T14:08:22;99471.00;;;11.70
29423;BMP180;16399;51.686;8.684;2023-12-28T14:11:25;99478.00;;;11.70
29423;BMP180;16399;51.686;8.684;2023-12-28T14:14:27;99471.00;;;11.60
29423;BMP180;16399;51.686;8.684;2023-12-28T14:17:29;99464.00;;;11.50
29423;BMP180;16399;51.686;8.684;2023-12-28T14:20:32;99471.00;;;11.50
29423;BMP180;16399;51.686;8.684;2023-12-28T14:23:35;99472.00;;;11.40
29423;BMP180;16399;51.686;8.684;2023-12-28T14:26:40;99473.00;;;11.30
29423;BMP180;16399;51.686;8.684;2023-12-28T14:29:44;99463.00;;;11.30
29423;BMP180;16399;51.686;8.684;2023-12-28T14:32:47;99462.00;;;11.20
29423;BMP180;16399;51.686;8.684;2023-12-28T14:35:50;99462.00;;;11.20
29423;BMP180;16399;51.686;8.684;2023-12-28T14:38:52;99458.00;;;11.10
29423;BMP180;16399;51.686;8.684;2023-12-28T14:41:54;99464.00;;;11.00
29423;BMP180;16399;51.686;8.684;2023-12-28T14:44:59;99466.00;;;11.00
29423;BMP180;16399;51.686;8.684;2023-12-28T14:48:04;99469.00;;;10.90
29423;BMP180;16399;51.686;8.684;2023-12-28T14:51:06;99473.00;;;10.80
29423;BMP180;16399;51.686;8.684;2023-12-28T14:54:09;99468.00;;;10.80
29423;BMP180;16399;51.686;8.684;2023-12-28T14:57:11;99457.00;;;10.80
29423;BMP180;16399;51.686;8.684;2023-12-28T15:00:14;99471.00;;;10.70
29423;BMP180;16399;51.686;8.684;2023-12-28T15:03:16;99469.00;;;10.70
29423;BMP180;16399;51.686;8.684;2023-12-28T15:06:19;99465.00;;;10.70
29423;BMP180;16399;51.686;8.684;2023-12-28T15:09:21;99470.00;;;10.60
29423;BMP180;16399;51.686;8.684;2023-12-28T15:12:23;99459.00;;;10.60
29423;BMP180;16399;51.686;8.684;2023-12-28T15:15:26;99464.00;;;10.50
29423;BMP180;16399;51.686;8.684;2023-12-28T15:18:30;99449.00;;;10.50
29423;BMP180;16399;51.686;8.684;2023-12-28T15:21:33;99463.00;;;10.40
29423;BMP180;16399;51.686;8.684;2023-12-28T15:24:36;99457.00;;;10.40
29423;BMP180;16399;51.686;8.684;2023-12-28T15:27:39;99454.00;;;10.30
29423;BMP180;16399;51.686;8.684;2023-12-28T15:30:41;99462.00;;;10.30
29423;BMP180;16399;51.686;8.684;2023-12-28T15:33:43;99467.00;;;10.20
29423;BMP180;16399;51.686;8.684;2023-12-28T15:36:46;99463.00;;;10.20
29423;BMP180;16399;51.686;8.684;2023-12-28T15:39:48;99457.00;;;10.10
29423;BMP180;16399;51.686;8.684;2023-12-28T15:42:51;99458.00;;;10.10
29423;BMP180;16399;51.686;8.684;2023-12-28T15:45:53;99460.00;;;10.10
29423;BMP180;16399;51.686;8.684;2023-12-28T15:48:55;99467.00;;;10.00
29423;BMP180;16399;51.686;8.684;2023-12-28T15:51:57;99465.00;;;10.00
29423;BMP180;16399;51.686;8.684;2023-12-28T15:55:00;99463.00;;;10.00
29423;BMP180;16399;51.686;8.684;2023-12-28T15:58:02;99450.00;;;10.00
29423;BMP180;16399;51.686;8.684;2023-12-28T16:01:04;99455.00;;;9.90
29423;BMP180;16399;51.686;8.684;2023-12-28T16:04:07;99461.00;;;9.90
29423;BMP180;16399;51.686;8.684;2023-12-28T16:07:09;99452.00;;;9.90
29423;BMP180;16399;51.686;8.684;2023-12-28T16:10:12;99442.00;;;9.80
29423;BMP180;16399;51.686;8.684;2023-12-28T16:13:14;99462.00;;;9.80
29423;BMP180;16399;51.686;8.684;2023-12-28T16:16:16;99462.00;;;9.80
29423;BMP180;16399;51.686;8.684;2023-12-28T16:19:19;99464.00;;;9.80
29423;BMP180;16399;51.686;8.684;2023-12-28T16:22:22;99455.00;;;9.80
29423;BMP180;16399;51.686;8.684;2023-12-28T16:25:24;99453.00;;;9.70
29423;BMP180;16399;51.686;8.684;2023-12-28T16:28:26;99454.00;;;9.70
29423;BMP180;16399;51.686;8.684;2023-12-28T16:31:29;99457.00;;;9.70
29423;BMP180;16399;51.686;8.684;2023-12-28T16:34:32;99450.00;;;9.70
29423;BMP180;16399;51.686;8.684;2023-12-28T16:37:35;99448.00;;;9.70
29423;BMP180;16399;51.686;8.684;2023-12-28T16:40:37;99444.00;;;9.60
29423;BMP180;16399;51.686;8.684;2023-12-28T16:43:40;99442.00;;;9.60
29423;BMP180;16399;51.686;8.684;2023-12-28T16:46:45;99435.00;;;9.60
29423;BMP180;16399;51.686;8.684;2023-12-28T16:49:48;99442.00;;;9.50
29423;BMP180;16399;51.686;8.684;2023-12-28T16:52:51;99446.00;;;9.50
29423;BMP180;16399;51.686;8.684;2023-12-28T16:55:53;99446.00;;;9.60
29423;BMP180;16399;51.686;8.684;2023-12-28T16:58:56;99446.00;;;9.60
29423;BMP180;16399;51.686;8.684;2023-12-28T17:01:58;99449.00;;;9.50
29423;BMP180;16399;51.686;8.684;2023-12-28T17:05:00;99445.00;;;9.50
29423;BMP180;16399;51.686;8.684;2023-12-28T17:08:03;99460.00;;;9.50
29423;BMP180;16399;51.686;8.684;2023-12-28T17:11:07;99457.00;;;9.60
29423;BMP180;16399;51.686;8.684;2023-12-28T17:14:10;99441.00;;;9.60
29423;BMP180;16399;51.686;8.684;2023-12-28T17:17:12;99448.00;;;9.60
29423;BMP180;16399;51.686;8.684;2023-12-28T17:20:15;99441.00;;;9.70
29423;BMP180;16399;51.686;8.684;2023-12-28T17:23:37;99437.00;;;9.70
29423;BMP180;16399;51.686;8.684;2023-12-28T17:26:37;99430.00;;;9.80
29423;BMP180;16399;51.686;8.684;2023-12-28T17:29:41;99427.00;;;9.80
29423;BMP180;16399;51.686;8.684;2023-12-28T17:32:46;99427.00;;;9.80
29423;BMP180;16399;51.686;8.684;2023-12-28T17:35:48;99420.00;;;9.90
29423;BMP180;16399;51.686;8.684;2023-12-28T17:38:51;99424.00;;;9.90
29423;BMP180;16399;51.686;8.684;2023-12-28T17:41:55;99417.00;;;9.90
29423;BMP180;16399;51.686;8.684;2023-12-28T17:44:59;99419.00;;;9.90